Time;durP1;ratioP1;P1;durP2;ratioP2;P2;SDS_P1;SDS_P2;PMS_P1;PMS_P2;Temp;Humidity;BMP_temperature;BMP_pressure;BME280_temperature;BME280_humidity;BME280_pressure;Samples;Min_cycle;Max_cycle;Signal;HPM_P1;HPM_P2
2022/05/10 00:02:05;;;;;;;;;;;;;;;16.37;96.62;100570.97;5053639;28;19956;-67
2022/05/10 00:04:30;;;;;;;;;;;;;;;16.32;96.62;100572.09;5053959;28;20457;-67
2022/05/10 00:06:56;;;;;;;;;;;;;;;16.35;97.10;100571.97;5053358;28;19921;-67
2022/05/10 00:09:23;;;;;;;;;;;;;;;16.23;96.86;100583.25;5053595;28;19965;-67
2022/05/10 00:11:48;;;;;;;;;;;;;;;16.18;97.17;100577.22;5053696;28;20007;-67
2022/05/10 00:14:13;;;;;;;;;;;;;;;16.26;97.57;100569.72;5053676;28;20004;-67
2022/05/10 00:16:40;;;;;;;;;;;;;;;16.26;97.27;100561.66;5053666;28;20011;-67
2022/05/10 00:19:05;;;;;;;;;;;;;;;16.27;97.28;100563.41;5053452;28;19967;-67
2022/05/10 00:21:31;;;;;;;;;;;;;;;16.27;96.86;100558.03;5053190;28;19952;-67
2022/05/10 00:23:56;;;;;;;;;;;;;;;16.23;97.76;100556.41;5053314;28;20014;-67
2022/05/10 00:26:22;;;;;;;;;;;;;;;16.09;97.44;100565.13;5053338;28;19924;-67
2022/05/10 00:28:47;;;;;;;;;;;;;;;16.01;98.20;100566.44;5053357;28;19927;-67
2022/05/10 00:31:13;;;;;;;;;;;;;;;15.98;98.75;100567.41;5052170;28;20384;-67
2022/05/10 00:33:38;;;;;;;;;;;;;;;15.96;98.51;100568.44;5053537;28;19909;-66
2022/05/10 00:36:04;;;;;;;;;;;;;;;15.87;98.93;100563.47;5051799;28;20090;-66
2022/05/10 00:38:34;;;;;;;;;;;;;;;15.80;98.79;100561.09;5052154;28;19913;-66
2022/05/10 00:41:05;;;;;;;;;;;;;;;15.77;98.78;100560.34;5053060;28;19912;-66
2022/05/10 00:43:33;;;;;;;;;;;;;;;15.75;99.47;100557.75;5053105;28;19923;-66
2022/05/10 00:46:17;;;;;;;;;;;;;;;15.80;99.27;100563.78;5052826;28;19917;-66
2022/05/10 00:49:11;;;;;;;;;;;;;;;15.87;99.73;100558.13;5052132;28;19921;-66
2022/05/10 00:51:43;;;;;;;;;;;;;;;15.92;99.89;100556.09;5043261;28;19971;-66
2022/05/10 00:54:28;;;;;;;;;;;;;;;15.94;99.47;100559.59;5053057;28;19923;-66
2022/05/10 00:57:00;;;;;;;;;;;;;;;15.94;100.00;100548.84;5052349;28;19962;-66
2022/05/10 00:59:31;;;;;;;;;;;;;;;15.95;98.98;100551.47;5052953;28;19923;-66
2022/05/10 01:02:01;;;;;;;;;;;;;;;15.90;99.73;100547.28;5052877;28;20388;-66
2022/05/10 01:04:30;;;;;;;;;;;;;;;15.82;99.49;100545.81;5052864;28;20279;-66
2022/05/10 01:07:01;;;;;;;;;;;;;;;15.71;99.71;100544.53;5052094;28;19923;-66
2022/05/10 01:09:40;;;;;;;;;;;;;;;15.64;99.29;100533.22;5052418;28;19920;-66
2022/05/10 01:12:11;;;;;;;;;;;;;;;15.67;99.85;100534.88;5052539;28;20459;-66
2022/05/10 01:14:47;;;;;;;;;;;;;;;15.64;100.00;100535.91;5052610;28;19939;-66
2022/05/10 01:17:16;;;;;;;;;;;;;;;15.56;100.00;100532.69;5060907;28;19922;-66
2022/05/10 01:19:43;;;;;;;;;;;;;;;15.48;100.00;100528.63;5064419;28;20402;-66
2022/05/10 01:22:08;;;;;;;;;;;;;;;15.42;100.00;100521.69;5052060;28;20463;-66
2022/05/10 01:24:46;;;;;;;;;;;;;;;15.44;100.00;100530.56;5052504;28;20004;-66
2022/05/10 01:27:24;;;;;;;;;;;;;;;15.34;100.00;100528.31;5051833;28;19924;-66
2022/05/10 01:29:52;;;;;;;;;;;;;;;15.33;100.00;100524.78;5052398;28;19913;-66
2022/05/10 01:35:07;;;;;;;;;;;;;;;15.33;100.00;100527.44;5051338;28;19927;-66
2022/05/10 01:37:35;;;;;;;;;;;;;;;15.25;100.00;100532.28;5051903;28;19912;-66
2022/05/10 01:40:04;;;;;;;;;;;;;;;15.19;100.00;100527.16;5052114;28;20340;-66
2022/05/10 01:42:32;;;;;;;;;;;;;;;15.10;100.00;100524.91;5051459;28;19913;-66
2022/05/10 01:44:57;;;;;;;;;;;;;;;15.02;100.00;100531.50;5051345;28;19916;-66
2022/05/10 01:47:30;;;;;;;;;;;;;;;15.01;100.00;100527.06;5051555;28;19921;-66
2022/05/10 01:50:03;;;;;;;;;;;;;;;14.95;100.00;100525.53;5049710;28;19924;-67
2022/05/10 01:52:31;;;;;;;;;;;;;;;14.95;100.00;100519.31;5050652;28;19999;-67
2022/05/10 01:55:13;;;;;;;;;;;;;;;14.97;100.00;100520.13;5050894;28;19916;-67
2022/05/10 01:57:39;;;;;;;;;;;;;;;14.96;100.00;100513.03;5051548;28;19921;-67
2022/05/10 02:00:10;;;;;;;;;;;;;;;14.92;100.00;100520.31;5051840;28;19917;-67
2022/05/10 02:02:38;;;;;;;;;;;;;;;14.85;100.00;100520.63;5051375;28;20383;-67
2022/05/10 02:05:07;;;;;;;;;;;;;;;14.83;100.00;100511.78;5051568;28;20012;-67
2022/05/10 02:07:33;;;;;;;;;;;;;;;14.77;100.00;100520.97;5051598;28;20383;-67
2022/05/10 02:10:22;;;;;;;;;;;;;;;14.70;100.00;100524.81;5051451;28;19943;-67
2022/05/10 02:13:02;;;;;;;;;;;;;;;14.66;100.00;100520.53;5051203;28;19940;-67
2022/05/10 02:15:34;;;;;;;;;;;;;;;14.57;100.00;100525.38;5050037;28;19924;-67
2022/05/10 02:18:04;;;;;;;;;;;;;;;14.55;100.00;100520.09;5066714;28;19962;-67
2022/05/10 02:20:32;;;;;;;;;;;;;;;14.47;100.00;100520.41;5061123;28;19916;-67
2022/05/10 02:23:20;;;;;;;;;;;;;;;14.40;100.00;100526.06;5049847;28;19958;-67
2022/05/10 02:25:47;;;;;;;;;;;;;;;14.32;100.00;100525.50;5050726;28;19956;-66
2022/05/10 02:28:15;;;;;;;;;;;;;;;14.27;100.00;100516.78;5051020;28;19921;-66
2022/05/10 02:30:41;;;;;;;;;;;;;;;14.26;100.00;100515.91;5050998;28;19936;-66
2022/05/10 02:33:08;;;;;;;;;;;;;;;14.34;100.00;100507.56;5050837;28;19925;-66
2022/05/10 02:35:38;;;;;;;;;;;;;;;14.35;100.00;100503.94;5051464;28;19944;-66
2022/05/10 02:38:04;;;;;;;;;;;;;;;14.34;100.00;100504.91;5050716;28;19968;-66
2022/05/10 02:40:30;;;;;;;;;;;;;;;14.35;100.00;100503.94;5051208;28;19923;-66
2022/05/10 02:42:55;;;;;;;;;;;;;;;14.42;100.00;100502.78;5051022;28;19913;-66
2022/05/10 02:45:21;;;;;;;;;;;;;;;14.37;100.00;100510.13;5051281;28;20457;-66
2022/05/10 02:47:48;;;;;;;;;;;;;;;14.41;100.00;100503.72;5054631;28;19994;-66
2022/05/10 02:50:22;;;;;;;;;;;;;;;14.28;100.00;100506.00;5055107;28;20364;-66
2022/05/10 02:52:47;;;;;;;;;;;;;;;14.05;100.00;100502.47;5054984;28;19978;-66
2022/05/10 02:55:17;;;;;;;;;;;;;;;13.99;100.00;100502.69;5055114;28;20016;-66
2022/05/10 02:57:44;;;;;;;;;;;;;;;13.90;100.00;100503.06;5055031;28;19924;-66
2022/05/10 03:00:10;;;;;;;;;;;;;;;13.88;100.00;100513.81;5054854;28;19951;-66
2022/05/10 03:02:39;;;;;;;;;;;;;;;13.85;100.00;100513.06;5055018;28;19968;-66
2022/05/10 03:05:06;;;;;;;;;;;;;;;13.81;100.00;100516.75;5054822;28;19967;-66
2022/05/10 03:07:31;;;;;;;;;;;;;;;13.86;100.00;100509.44;5054998;28;19924;-66
2022/05/10 03:09:57;;;;;;;;;;;;;;;13.98;100.00;100508.97;5054034;28;19921;-66
2022/05/10 03:12:22;;;;;;;;;;;;;;;14.00;100.00;100507.97;5053062;28;19917;-66
2022/05/10 03:14:48;;;;;;;;;;;;;;;14.01;100.00;100508.84;5054798;28;19924;-66
2022/05/10 03:17:13;;;;;;;;;;;;;;;14.00;100.00;100507.97;5063644;28;20397;-66
2022/05/10 03:19:42;;;;;;;;;;;;;;;14.04;100.00;100506.94;5054248;28;19921;-66
2022/05/10 03:22:08;;;;;;;;;;;;;;;14.07;100.00;100504.16;5054239;28;20449;-66
2022/05/10 03:24:34;;;;;;;;;;;;;;;14.07;100.00;100506.81;5054534;28;20007;-66
2022/05/10 03:27:02;;;;;;;;;;;;;;;14.00;100.00;100509.81;5054230;28;20015;-66
2022/05/10 03:29:28;;;;;;;;;;;;;;;13.91;100.00;100507.47;5054120;28;20376;-66
2022/05/10 03:31:53;;;;;;;;;;;;;;;13.94;100.00;100512.69;5054278;28;19928;-66
2022/05/10 03:37:03;;;;;;;;;;;;;;;13.97;100.00;100515.28;5054496;28;19951;-66
2022/05/10 03:39:28;;;;;;;;;;;;;;;13.96;100.00;100505.50;5053518;28;20372;-66
2022/05/10 03:41:53;;;;;;;;;;;;;;;13.95;100.00;100509.97;5054254;28;19917;-66
2022/05/10 03:44:18;;;;;;;;;;;;;;;13.96;100.00;100511.72;5054154;28;19912;-66
2022/05/10 03:46:44;;;;;;;;;;;;;;;14.01;100.00;100499.03;5054158;28;19936;-66
2022/05/10 03:49:10;;;;;;;;;;;;;;;14.02;100.00;100506.13;5052507;28;19928;-66
2022/05/10 03:51:35;;;;;;;;;;;;;;;14.07;100.00;100508.63;5052342;28;19919;-66
2022/05/10 03:54:00;;;;;;;;;;;;;;;14.14;100.00;100507.44;5051426;28;19920;-66
2022/05/10 03:56:26;;;;;;;;;;;;;;;14.09;100.00;100506.75;5052270;28;20265;-66
2022/05/10 03:58:51;;;;;;;;;;;;;;;14.07;100.00;100504.16;5051643;28;20020;-66
2022/05/10 04:01:20;;;;;;;;;;;;;;;14.11;100.00;100512.94;5052417;28;19912;-67
2022/05/10 04:03:45;;;;;;;;;;;;;;;14.13;100.00;100503.94;5052678;28;19920;-66
2022/05/10 04:06:11;;;;;;;;;;;;;;;14.13;100.00;100503.03;5053800;28;19967;-66
2022/05/10 04:08:36;;;;;;;;;;;;;;;14.13;100.00;100503.03;5053460;28;19920;-66
2022/05/10 04:11:03;;;;;;;;;;;;;;;14.10;100.00;100509.38;5053745;28;20326;-66
2022/05/10 04:13:28;;;;;;;;;;;;;;;14.09;100.00;100506.75;5052418;28;20295;-66
2022/05/10 04:15:53;;;;;;;;;;;;;;;13.92;100.00;100512.75;5053470;28;20007;-66
2022/05/10 04:18:19;;;;;;;;;;;;;;;13.88;100.00;100507.59;5071452;28;20429;-66
2022/05/10 04:20:44;;;;;;;;;;;;;;;13.86;100.00;100509.44;5061221;28;20663;-66
2022/05/10 04:23:10;;;;;;;;;;;;;;;13.80;100.00;100499.88;5052996;28;19916;-66
2022/05/10 04:25:36;;;;;;;;;;;;;;;13.89;100.00;100501.31;5053393;28;19917;-67
2022/05/10 04:28:04;;;;;;;;;;;;;;;14.02;100.00;100508.81;5053009;28;19964;-67
2022/05/10 04:30:30;;;;;;;;;;;;;;;14.10;100.00;100514.72;5053003;28;19913;-67
2022/05/10 04:32:55;;;;;;;;;;;;;;;14.23;100.00;100515.13;5051919;28;20052;-67
2022/05/10 04:35:20;;;;;;;;;;;;;;;14.32;100.00;100514.78;5052387;28;19916;-67
2022/05/10 04:37:46;;;;;;;;;;;;;;;14.36;100.00;100516.41;5053100;28;19917;-67
2022/05/10 04:42:55;;;;;;;;;;;;;;;14.52;100.00;100528.25;5053420;28;19924;-67
2022/05/10 04:45:21;;;;;;;;;;;;;;;14.46;100.00;100526.69;5052970;28;19916;-67
2022/05/10 04:47:46;;;;;;;;;;;;;;;14.43;100.00;100533.97;5053026;28;20299;-67
2022/05/10 04:50:11;;;;;;;;;;;;;;;14.39;100.00;100535.03;5052272;28;20015;-67
2022/05/10 04:52:37;;;;;;;;;;;;;;;14.42;100.00;100548.28;5052420;28;19917;-67
2022/05/10 04:55:03;;;;;;;;;;;;;;;14.47;100.00;100551.66;5052738;28;20372;-67
2022/05/10 04:57:29;;;;;;;;;;;;;;;14.59;100.00;100544.94;5052866;28;19947;-67
2022/05/10 04:59:54;;;;;;;;;;;;;;;14.72;100.00;100552.41;5052880;28;19916;-67
2022/05/10 05:02:19;;;;;;;;;;;;;;;14.87;100.00;100557.13;5052796;28;19920;-67
2022/05/10 05:04:44;;;;;;;;;;;;;;;15.04;100.00;100554.59;5052323;28;19920;-67
2022/05/10 05:07:10;;;;;;;;;;;;;;;15.24;100.00;100549.28;5051123;28;20250;-67
2022/05/10 05:09:35;;;;;;;;;;;;;;;15.44;100.00;100549.31;5052382;28;19913;-67
2022/05/10 05:12:01;;;;;;;;;;;;;;;15.64;100.00;100549.31;5051227;28;19913;-67
2022/05/10 05:14:26;;;;;;;;;;;;;;;15.92;99.87;100556.97;5052399;28;20325;-67
2022/05/10 05:16:54;;;;;;;;;;;;;;;16.13;98.69;100549.78;5055016;28;19979;-67
2022/05/10 05:19:19;;;;;;;;;;;;;;;16.35;97.47;100555.84;5052312;28;20392;-67
2022/05/10 05:21:44;;;;;;;;;;;;;;;16.52;96.05;100553.28;5052404;28;19919;-67
2022/05/10 05:24:11;;;;;;;;;;;;;;;16.68;95.10;100554.25;5052116;28;20334;-67
2022/05/10 05:26:36;;;;;;;;;;;;;;;16.81;92.43;100556.28;5051870;28;19917;-67
2022/05/10 05:29:01;;;;;;;;;;;;;;;16.92;91.68;100563.78;5052137;28;19971;-67
2022/05/10 05:31:27;;;;;;;;;;;;;;;17.07;90.61;100557.66;5051854;28;20304;-67
2022/05/10 05:33:54;;;;;;;;;;;;;;;17.26;90.34;100552.22;5051966;28;19919;-67
2022/05/10 05:36:19;;;;;;;;;;;;;;;17.32;87.19;100554.56;5050490;28;19923;-67
2022/05/10 05:38:44;;;;;;;;;;;;;;;17.21;87.20;100552.47;5052060;28;19920;-67
2022/05/10 05:41:10;;;;;;;;;;;;;;;17.25;87.76;100550.50;5051764;28;19913;-67
2022/05/10 05:43:35;;;;;;;;;;;;;;;17.26;87.47;100547.72;5052146;28;19912;-67
2022/05/10 05:46:01;;;;;;;;;;;;;;;17.36;86.25;100549.00;5051893;28;19916;-67
2022/05/10 05:48:27;;;;;;;;;;;;;;;17.45;85.44;100559.28;5051920;28;19933;-67
2022/05/10 05:50:52;;;;;;;;;;;;;;;17.50;85.15;100561.72;5051652;28;19920;-67
2022/05/10 05:53:18;;;;;;;;;;;;;;;17.66;85.64;100554.63;5051718;28;19920;-67
2022/05/10 05:55:43;;;;;;;;;;;;;;;17.64;84.98;100559.19;5051899;28;19913;-67
2022/05/10 05:58:10;;;;;;;;;;;;;;;17.70;84.84;100559.75;5051789;28;20058;-67
2022/05/10 06:00:35;;;;;;;;;;;;;;;17.78;84.95;100564.72;5051247;28;19925;-67
2022/05/10 06:03:01;;;;;;;;;;;;;;;17.90;84.33;100573.00;5049601;28;20364;-67
2022/05/10 06:05:29;;;;;;;;;;;;;;;17.96;83.40;100564.59;5049633;28;19917;-67
2022/05/10 06:07:54;;;;;;;;;;;;;;;17.98;83.23;100560.00;5049722;28;19920;-67
2022/05/10 06:10:20;;;;;;;;;;;;;;;18.19;83.52;100566.91;5048954;28;19991;-67
2022/05/10 06:12:45;;;;;;;;;;;;;;;18.34;82.50;100555.28;5050356;28;19920;-67
2022/05/10 06:15:13;;;;;;;;;;;;;;;18.51;81.75;100561.59;5050076;28;20426;-67
2022/05/10 06:17:40;;;;;;;;;;;;;;;18.63;79.31;100555.50;5063765;28;19955;-67
2022/05/10 06:20:09;;;;;;;;;;;;;;;18.77;79.28;100559.16;5062502;28;19913;-67
2022/05/10 06:22:35;;;;;;;;;;;;;;;18.95;77.81;100549.13;5051440;28;19928;-67
2022/05/10 06:25:00;;;;;;;;;;;;;;;19.14;78.00;100547.09;5051294;28;19917;-67
2022/05/10 06:27:26;;;;;;;;;;;;;;;19.38;77.13;100559.16;5050870;28;19967;-67
2022/05/10 06:29:51;;;;;;;;;;;;;;;19.53;76.28;100558.22;5049239;28;19967;-67
2022/05/10 06:32:24;;;;;;;;;;;;;;;19.71;76.35;100562.50;5050829;28;19960;-67
2022/05/10 06:34:50;;;;;;;;;;;;;;;19.90;76.09;100557.69;5049687;28;19913;-67
2022/05/10 06:40:02;;;;;;;;;;;;;;;20.13;74.28;100565.22;5051008;28;19991;-67
2022/05/10 06:42:28;;;;;;;;;;;;;;;20.19;73.03;100564.03;5051135;28;19928;-67
2022/05/10 06:44:54;;;;;;;;;;;;;;;20.43;73.67;100562.44;5051021;28;19913;-67
2022/05/10 06:47:19;;;;;;;;;;;;;;;20.67;72.76;100555.47;5050505;28;19917;-67
2022/05/10 06:49:45;;;;;;;;;;;;;;;20.75;70.78;100562.13;5050664;28;19921;-67
2022/05/10 06:52:10;;;;;;;;;;;;;;;20.86;70.61;100556.84;5050925;28;20369;-67
2022/05/10 06:54:35;;;;;;;;;;;;;;;21.14;72.12;100552.31;5051070;28;19960;-67
2022/05/10 06:57:01;;;;;;;;;;;;;;;21.40;70.50;100556.88;5050989;28;19913;-67
2022/05/10 06:59:26;;;;;;;;;;;;;;;21.73;67.14;100555.38;5050946;28;20007;-67
2022/05/10 07:01:51;;;;;;;;;;;;;;;21.82;66.60;100559.34;5050935;28;19916;-67
2022/05/10 07:04:16;;;;;;;;;;;;;;;21.87;66.88;100560.75;5051061;28;19920;-67
2022/05/10 07:06:41;;;;;;;;;;;;;;;22.22;67.12;100558.25;5050890;28;19917;-67
2022/05/10 07:09:07;;;;;;;;;;;;;;;22.48;66.03;100559.06;5050588;28;19916;-67
2022/05/10 07:11:32;;;;;;;;;;;;;;;22.62;64.80;100559.81;5049470;28;20360;-67
2022/05/10 07:13:57;;;;;;;;;;;;;;;22.69;64.18;100557.53;5051027;28;19919;-67
2022/05/10 07:16:22;;;;;;;;;;;;;;;22.72;63.42;100558.16;5052670;28;19913;-67
2022/05/10 07:18:49;;;;;;;;;;;;;;;22.69;62.71;100557.53;5070828;28;19920;-67
2022/05/10 07:21:14;;;;;;;;;;;;;;;22.95;62.58;100549.19;5053539;28;19920;-67
2022/05/10 07:23:39;;;;;;;;;;;;;;;23.00;59.96;100552.41;5049240;28;19917;-67
2022/05/10 07:26:05;;;;;;;;;;;;;;;23.16;59.40;100547.56;5050313;28;19921;-67
2022/05/10 07:28:32;;;;;;;;;;;;;;;23.57;59.52;100549.88;5049526;28;19943;-67
2022/05/10 07:30:58;;;;;;;;;;;;;;;23.95;58.61;100552.28;5050479;28;20604;-67
2022/05/10 07:33:24;;;;;;;;;;;;;;;24.47;56.72;100545.28;5053228;28;19913;-66
2022/05/10 07:38:34;;;;;;;;;;;;;;;24.48;54.30;100547.00;5034565;28;20019;-66
2022/05/10 07:40:59;;;;;;;;;;;;;;;24.34;55.77;100543.69;5034430;28;19972;-66
2022/05/10 07:43:25;;;;;;;;;;;;;;;24.60;56.81;100550.59;5041610;28;19921;-66
2022/05/10 07:45:51;;;;;;;;;;;;;;;25.10;54.90;100544.56;5054422;28;19927;-66
2022/05/10 07:48:19;;;;;;;;;;;;;;;25.24;53.86;100546.16;5052648;28;19920;-66
2022/05/10 07:50:44;;;;;;;;;;;;;;;25.18;53.43;100547.50;5052935;28;19913;-66
2022/05/10 07:53:13;;;;;;;;;;;;;;;25.22;51.92;100543.53;5052729;28;20273;-66
2022/05/10 07:55:39;;;;;;;;;;;;;;;25.58;51.67;100545.03;5052525;28;20343;-66
2022/05/10 07:58:05;;;;;;;;;;;;;;;25.72;51.72;100536.50;5052483;28;19913;-66
2022/05/10 08:00:31;;;;;;;;;;;;;;;25.79;51.32;100541.31;5054240;28;20279;-66
2022/05/10 08:02:57;;;;;;;;;;;;;;;26.65;50.30;100539.06;5053688;28;20366;-66
2022/05/10 08:05:23;;;;;;;;;;;;;;;26.91;48.87;100539.38;5053602;28;19948;-66
2022/05/10 08:07:50;;;;;;;;;;;;;;;27.21;48.56;100537.41;5052499;28;19921;-66
2022/05/10 08:10:16;;;;;;;;;;;;;;;27.46;46.96;100540.63;5052278;28;19925;-66
2022/05/10 08:12:41;;;;;;;;;;;;;;;27.48;47.89;100539.47;5052514;28;20268;-66
2022/05/10 08:15:08;;;;;;;;;;;;;;;27.55;47.61;100540.63;5052363;28;19920;-66
2022/05/10 08:17:33;;;;;;;;;;;;;;;27.53;47.38;100531.69;5063925;28;20466;-66
2022/05/10 08:19:59;;;;;;;;;;;;;;;27.81;47.38;100536.25;5066003;28;19916;-66
2022/05/10 08:22:24;;;;;;;;;;;;;;;27.80;45.26;100534.53;5053042;28;20336;-66
2022/05/10 08:24:49;;;;;;;;;;;;;;;27.83;46.02;100531.50;5053032;28;19913;-66
2022/05/10 08:27:15;;;;;;;;;;;;;;;27.98;45.36;100538.28;5052124;28;19920;-66
2022/05/10 08:29:40;;;;;;;;;;;;;;;28.36;45.01;100535.41;5052689;28;19913;-66
2022/05/10 08:32:06;;;;;;;;;;;;;;;28.56;44.76;100532.63;5053142;28;19932;-66
2022/05/10 08:34:34;;;;;;;;;;;;;;;28.69;43.89;100534.00;5053287;28;19912;-66
2022/05/10 08:37:01;;;;;;;;;;;;;;;28.75;44.81;100532.53;5052832;28;19917;-66
2022/05/10 08:39:26;;;;;;;;;;;;;;;28.81;44.04;100532.78;5053285;28;19913;-66
2022/05/10 08:41:53;;;;;;;;;;;;;;;29.07;44.92;100522.78;5053354;28;21117;-66
2022/05/10 08:44:22;;;;;;;;;;;;;;;29.45;43.88;100529.88;5052128;28;19978;-66
2022/05/10 08:46:56;;;;;;;;;;;;;;;29.35;42.84;100532.69;5052412;28;19917;-66
2022/05/10 08:49:25;;;;;;;;;;;;;;;29.28;43.41;100530.72;5052046;28;20027;-66
2022/05/10 08:51:51;;;;;;;;;;;;;;;29.42;43.94;100521.97;5051495;28;20299;-66
2022/05/10 08:54:16;;;;;;;;;;;;;;;29.49;42.75;100517.56;5052899;28;19921;-66
2022/05/10 08:56:51;;;;;;;;;;;;;;;29.55;41.85;100520.56;5053087;28;19927;-66
2022/05/10 08:59:22;;;;;;;;;;;;;;;29.34;42.43;100516.41;5052636;28;19921;-66
2022/05/10 09:02:08;;;;;;;;;;;;;;;29.24;42.80;100521.13;5053147;28;19967;-66
2022/05/10 09:04:41;;;;;;;;;;;;;;;29.56;42.16;100519.53;5052281;28;19940;-66
2022/05/10 09:07:23;;;;;;;;;;;;;;;30.08;40.65;100525.94;5052811;28;20256;-66
2022/05/10 09:09:54;;;;;;;;;;;;;;;30.49;40.70;100518.81;5052687;28;20292;-66
2022/05/10 09:12:21;;;;;;;;;;;;;;;30.49;39.88;100525.19;5051279;28;19912;-66
2022/05/10 09:14:57;;;;;;;;;;;;;;;30.00;41.30;100523.13;5051428;28;20387;-66
2022/05/10 09:17:24;;;;;;;;;;;;;;;29.87;40.11;100517.22;5061134;28;19964;-66
2022/05/10 09:19:50;;;;;;;;;;;;;;;30.05;40.99;100515.28;5066721;28;19920;-66
2022/05/10 09:22:32;;;;;;;;;;;;;;;30.02;40.93;100507.38;5052038;28;19921;-65
2022/05/10 09:24:57;;;;;;;;;;;;;;;29.95;40.99;100514.50;5052460;28;20300;-65
2022/05/10 09:27:31;;;;;;;;;;;;;;;30.50;41.48;100515.03;5052161;28;19943;-65
2022/05/10 09:29:56;;;;;;;;;;;;;;;30.79;39.40;100502.66;5052037;28;20007;-65
2022/05/10 09:35:10;;;;;;;;;;;;;;;30.91;38.47;100496.88;5051166;28;19923;-65
2022/05/10 09:37:55;;;;;;;;;;;;;;;30.79;39.60;100499.91;5050530;28;19927;-65
2022/05/10 09:40:35;;;;;;;;;;;;;;;30.94;38.60;100496.53;5049990;28;19913;-65
2022/05/10 09:43:11;;;;;;;;;;;;;;;31.46;37.77;100486.97;5049835;28;19913;-65
2022/05/10 09:45:37;;;;;;;;;;;;;;;31.72;37.84;100487.66;5050438;28;19921;-65
2022/05/10 09:48:03;;;;;;;;;;;;;;;32.06;36.41;100489.19;5051708;28;19917;-65
2022/05/10 09:50:31;;;;;;;;;;;;;;;32.13;36.77;100486.56;5050608;28;20383;-65
2022/05/10 09:53:26;;;;;;;;;;;;;;;32.05;36.91;100486.59;5050595;28;20398;-65
2022/05/10 09:56:03;;;;;;;;;;;;;;;32.24;36.80;100482.59;5036223;28;20312;-65
2022/05/10 09:58:36;;;;;;;;;;;;;;;31.86;38.97;100487.84;5050489;28;19917;-65
2022/05/10 10:01:04;;;;;;;;;;;;;;;32.12;37.52;100473.84;5050205;28;19913;-65
2022/05/10 10:03:29;;;;;;;;;;;;;;;32.37;36.42;100482.91;5050444;28;20368;-65
2022/05/10 10:05:56;;;;;;;;;;;;;;;32.64;38.52;100477.81;5051401;28;19923;-65
2022/05/10 10:08:57;;;;;;;;;;;;;;;32.38;37.69;100474.47;5050692;28;20573;-65
2022/05/10 10:11:23;;;;;;;;;;;;;;;32.27;37.92;100472.09;4970418;28;20397;-65
2022/05/10 10:13:51;;;;;;;;;;;;;;;32.05;36.21;100475.59;5018678;28;19991;-65
2022/05/10 10:16:20;;;;;;;;;;;;;;;32.22;35.02;100480.03;5032432;28;19979;-65
2022/05/10 10:18:48;;;;;;;;;;;;;;;32.54;34.50;100468.91;5070779;28;19943;-65
2022/05/10 10:21:16;;;;;;;;;;;;;;;32.78;33.66;100465.16;5055318;28;20313;-65
2022/05/10 10:23:47;;;;;;;;;;;;;;;32.72;34.35;100472.25;5051307;28;19924;-65
2022/05/10 10:26:31;;;;;;;;;;;;;;;32.76;34.58;100467.22;5051405;28;19917;-65
2022/05/10 10:29:19;;;;;;;;;;;;;;;32.95;33.73;100456.63;5050920;28;19974;-65
2022/05/10 10:31:51;;;;;;;;;;;;;;;33.17;34.43;100461.31;5051255;28;19974;-65
2022/05/10 10:34:20;;;;;;;;;;;;;;;33.64;35.26;100465.78;5050903;28;19974;-65
2022/05/10 10:37:10;;;;;;;;;;;;;;;33.50;33.36;100461.06;5051407;28;19920;-65
2022/05/10 10:39:39;;;;;;;;;;;;;;;34.11;33.50;100460.81;5050216;28;19932;-65
2022/05/10 10:42:48;;;;;;;;;;;;;;;34.41;33.69;100459.81;5050975;28;19959;-65
2022/05/10 10:45:15;;;;;;;;;;;;;;;34.65;31.80;100456.69;5028322;28;19928;-65
2022/05/10 10:48:04;;;;;;;;;;;;;;;34.52;31.87;100451.00;5027895;28;19917;-65
2022/05/10 10:50:33;;;;;;;;;;;;;;;34.62;31.88;100454.34;5042962;28;19963;-66
2022/05/10 10:52:59;;;;;;;;;;;;;;;34.64;33.08;100441.19;5051072;28;19912;-66
2022/05/10 10:55:50;;;;;;;;;;;;;;;34.38;32.62;100447.19;5050431;28;20007;-66
2022/05/10 10:58:19;;;;;;;;;;;;;;;34.03;34.84;100436.06;5045742;28;20380;-66
2022/05/10 11:01:02;;;;;;;;;;;;;;;33.87;36.20;100441.75;5048965;28;20019;-66
2022/05/10 11:03:39;;;;;;;;;;;;;;;34.26;32.07;100434.06;5049082;28;19920;-66
2022/05/10 11:06:16;;;;;;;;;;;;;;;34.69;32.98;100422.09;5049157;28;19920;-66
2022/05/10 11:09:00;;;;;;;;;;;;;;;34.46;33.92;100426.94;5052802;28;20380;-66
2022/05/10 11:11:51;;;;;;;;;;;;;;;34.27;32.51;100431.09;5054444;28;19924;-66
2022/05/10 11:14:23;;;;;;;;;;;;;;;34.63;32.15;100413.75;5054429;28;19916;-65
2022/05/10 11:16:57;;;;;;;;;;;;;;;34.57;31.22;100423.66;5060086;28;20429;-65
2022/05/10 11:19:23;;;;;;;;;;;;;;;34.56;30.07;100421.94;5073533;28;19912;-65
2022/05/10 11:21:57;;;;;;;;;;;;;;;34.74;30.44;100419.63;5054737;28;19987;-66
2022/05/10 11:24:43;;;;;;;;;;;;;;;34.71;29.31;100414.47;5054664;28;19917;-66
2022/05/10 11:27:27;;;;;;;;;;;;;;;34.65;30.46;100415.25;5054669;28;19920;-65
2022/05/10 11:29:55;;;;;;;;;;;;;;;34.44;30.83;100406.91;5054327;28;19955;-65
2022/05/10 11:32:23;;;;;;;;;;;;;;;34.26;30.26;100406.44;5054538;28;19920;-65
2022/05/10 11:35:12;;;;;;;;;;;;;;;33.89;32.46;100403.75;5054320;28;20402;-65
2022/05/10 11:38:09;;;;;;;;;;;;;;;34.33;32.65;100399.09;5025522;28;19917;-65
2022/05/10 11:40:40;;;;;;;;;;;;;;;35.13;31.94;100388.78;5020030;28;19987;-65
2022/05/10 11:43:07;;;;;;;;;;;;;;;35.49;30.33;100387.63;5053859;28;20013;-66
2022/05/10 11:45:59;;;;;;;;;;;;;;;35.25;31.79;100384.41;5054234;28;19982;-66
2022/05/10 11:48:42;;;;;;;;;;;;;;;34.66;32.40;100378.28;5053945;28;19916;-66
2022/05/10 11:54:13;;;;;;;;;;;;;;;34.69;30.86;100377.88;5052820;28;19939;-66
2022/05/10 11:56:39;;;;;;;;;;;;;;;35.04;32.13;100374.22;5053953;28;20323;-66
2022/05/10 11:59:20;;;;;;;;;;;;;;;34.97;29.88;100370.56;5053829;28;20253;-66
2022/05/10 12:01:46;;;;;;;;;;;;;;;35.07;31.04;100365.53;5051679;28;19912;-65
2022/05/10 12:04:31;;;;;;;;;;;;;;;35.22;31.23;100365.47;5051800;28;19943;-65
2022/05/10 12:07:16;;;;;;;;;;;;;;;35.29;30.19;100352.53;5051030;28;19931;-65
2022/05/10 12:09:57;;;;;;;;;;;;;;;34.74;30.86;100350.50;5051708;28;20434;-66
2022/05/10 12:12:31;;;;;;;;;;;;;;;35.10;31.14;100348.53;5052036;28;20006;-66
2022/05/10 12:23:50;;;;;;;;;;;;;;;35.63;29.34;100336.88;5053470;28;19970;-66
2022/05/10 12:26:35;;;;;;;;;;;;;;;35.30;31.34;100330.22;5053027;28;19917;-66
2022/05/10 12:29:01;;;;;;;;;;;;;;;35.36;30.07;100329.41;5053619;28;19921;-66
2022/05/10 12:31:32;;;;;;;;;;;;;;;34.99;30.64;100323.34;5052562;28;19925;-66
2022/05/10 12:34:00;;;;;;;;;;;;;;;34.32;29.66;100329.16;5053702;28;19917;-66
2022/05/10 12:36:37;;;;;;;;;;;;;;;34.55;32.64;100323.50;5053223;28;19920;-65
2022/05/10 12:39:14;;;;;;;;;;;;;;;34.92;30.93;100326.03;5052947;28;19913;-65
2022/05/10 12:41:44;;;;;;;;;;;;;;;35.31;31.53;100317.22;5053013;28;19978;-65
2022/05/10 12:44:17;;;;;;;;;;;;;;;34.56;32.44;100312.25;5053182;28;19917;-65
2022/05/10 12:46:45;;;;;;;;;;;;;;;34.36;30.78;100315.81;5052482;28;19920;-65
2022/05/10 12:49:10;;;;;;;;;;;;;;;33.99;31.32;100313.22;5062443;28;19924;-65
2022/05/10 12:52:00;;;;;;;;;;;;;;;33.95;33.60;100306.38;5056088;28;19997;-65
2022/05/10 12:54:26;;;;;;;;;;;;;;;34.42;33.04;100306.78;5073162;28;19912;-65
2022/05/10 12:57:24;;;;;;;;;;;;;;;34.31;33.05;100301.75;5072779;28;19958;-65
2022/05/10 13:00:12;;;;;;;;;;;;;;;34.09;32.84;100302.72;5025638;28;19917;-65
2022/05/10 13:02:50;;;;;;;;;;;;;;;34.09;33.87;100298.06;5051624;28;19939;-65
2022/05/10 13:05:17;;;;;;;;;;;;;;;34.17;33.87;100297.97;5051904;28;19923;-65
2022/05/10 13:07:56;;;;;;;;;;;;;;;34.38;33.80;100291.63;5052695;28;19974;-65
2022/05/10 13:10:22;;;;;;;;;;;;;;;34.01;33.60;100294.56;5052243;28;19924;-65
2022/05/10 13:12:53;;;;;;;;;;;;;;;34.09;34.90;100286.16;5062755;28;19916;-66
2022/05/10 13:15:21;;;;;;;;;;;;;;;33.60;34.23;100285.94;5062288;28;19928;-64